sensor_id;sensor_type;location;lat;lon;timestamp;temperature;humidity
8226;DHT22;4154;48.810;9.012;2022-12-29T00:02:25;9.90;96.10
8226;DHT22;4154;48.810;9.012;2022-12-29T00:04:51;9.90;96.20
8226;DHT22;4154;48.810;9.012;2022-12-29T00:07:17;9.90;96.10
8226;DHT22;4154;48.810;9.012;2022-12-29T00:09:43;9.90;96.00
8226;DHT22;4154;48.810;9.012;2022-12-29T00:12:09;10.00;95.40
8226;DHT22;4154;48.810;9.012;2022-12-29T00:14:34;10.00;95.60
8226;DHT22;4154;48.810;9.012;2022-12-29T00:17:19;10.00;95.50
8226;DHT22;4154;48.810;9.012;2022-12-29T00:19:44;10.00;95.40
8226;DHT22;4154;48.810;9.012;2022-12-29T00:22:28;10.00;95.40
8226;DHT22;4154;48.810;9.012;2022-12-29T00:25:13;10.10;95.50
8226;DHT22;4154;48.810;9.012;2022-12-29T00:27:57;10.10;95.50
8226;DHT22;4154;48.810;9.012;2022-12-29T00:30:42;10.10;95.40
8226;DHT22;4154;48.810;9.012;2022-12-29T00:33:29;10.10;95.40
8226;DHT22;4154;48.810;9.012;2022-12-29T00:39:04;10.30;95.40
8226;DHT22;4154;48.810;9.012;2022-12-29T00:41:53;10.30;95.40
8226;DHT22;4154;48.810;9.012;2022-12-29T00:44:37;10.30;95.50
8226;DHT22;4154;48.810;9.012;2022-12-29T00:47:02;10.30;95.50
8226;DHT22;4154;48.810;9.012;2022-12-29T00:49:29;10.30;95.40
8226;DHT22;4154;48.810;9.012;2022-12-29T00:52:17;10.30;95.40
8226;DHT22;4154;48.810;9.012;2022-12-29T00:54:42;10.30;95.40
8226;DHT22;4154;48.810;9.012;2022-12-29T00:57:10;10.40;95.50
8226;DHT22;4154;48.810;9.012;2022-12-29T00:59:38;10.40;95.20
8226;DHT22;4154;48.810;9.012;2022-12-29T01:02:05;10.40;95.20
8226;DHT22;4154;48.810;9.012;2022-12-29T01:04:31;10.40;95.30
8226;DHT22;4154;48.810;9.012;2022-12-29T01:06:57;10.50;95.10
8226;DHT22;4154;48.810;9.012;2022-12-29T01:09:23;10.50;95.20
8226;DHT22;4154;48.810;9.012;2022-12-29T01:12:09;10.50;95.20
8226;DHT22;4154;48.810;9.012;2022-12-29T01:14:36;10.60;95.10
8226;DHT22;4154;48.810;9.012;2022-12-29T01:17:01;10.30;97.20
8226;DHT22;4154;48.810;9.012;2022-12-29T01:19:27;10.50;95.20
8226;DHT22;4154;48.810;9.012;2022-12-29T01:24:20;10.50;95.10
8226;DHT22;4154;48.810;9.012;2022-12-29T01:26:47;10.50;95.20
8226;DHT22;4154;48.810;9.012;2022-12-29T01:29:13;10.40;95.30
8226;DHT22;4154;48.810;9.012;2022-12-29T01:31:39;10.40;95.40
8226;DHT22;4154;48.810;9.012;2022-12-29T01:34:06;10.50;95.40
8226;DHT22;4154;48.810;9.012;2022-12-29T01:36:32;10.50;95.30
8226;DHT22;4154;48.810;9.012;2022-12-29T01:38:58;10.50;95.40
8226;DHT22;4154;48.810;9.012;2022-12-29T01:41:24;10.50;95.30
8226;DHT22;4154;48.810;9.012;2022-12-29T01:43:52;10.50;95.20
8226;DHT22;4154;48.810;9.012;2022-12-29T01:49:17;10.60;95.20
8226;DHT22;4154;48.810;9.012;2022-12-29T01:51:58;10.40;95.20
8226;DHT22;4154;48.810;9.012;2022-12-29T01:54:34;10.60;95.40
8226;DHT22;4154;48.810;9.012;2022-12-29T01:57:08;10.50;95.40
8226;DHT22;4154;48.810;9.012;2022-12-29T01:59:45;10.50;95.30
8226;DHT22;4154;48.810;9.012;2022-12-29T02:02:17;10.50;95.40
8226;DHT22;4154;48.810;9.012;2022-12-29T02:04:43;10.50;95.30
8226;DHT22;4154;48.810;9.012;2022-12-29T02:07:14;10.50;95.30
8226;DHT22;4154;48.810;9.012;2022-12-29T02:09:45;10.50;95.50
8226;DHT22;4154;48.810;9.012;2022-12-29T02:12:13;10.50;95.50
8226;DHT22;4154;48.810;9.012;2022-12-29T02:20:05;10.50;95.40
8226;DHT22;4154;48.810;9.012;2022-12-29T02:26:17;10.90;97.70
8226;DHT22;4154;48.810;9.012;2022-12-29T02:32:03;10.60;95.10
8226;DHT22;4154;48.810;9.012;2022-12-29T02:35:01;10.60;95.10
8226;DHT22;4154;48.810;9.012;2022-12-29T02:40:39;10.60;95.10
8226;DHT22;4154;48.810;9.012;2022-12-29T02:43:16;10.60;95.10
8226;DHT22;4154;48.810;9.012;2022-12-29T02:48:52;10.70;94.90
8226;DHT22;4154;48.810;9.012;2022-12-29T02:51:33;10.70;95.20
8226;DHT22;4154;48.810;9.012;2022-12-29T02:54:11;10.70;95.10
8226;DHT22;4154;48.810;9.012;2022-12-29T02:56:56;10.70;95.10
8226;DHT22;4154;48.810;9.012;2022-12-29T02:59:22;10.70;95.20
8226;DHT22;4154;48.810;9.012;2022-12-29T03:10:37;10.80;95.00
8226;DHT22;4154;48.810;9.012;2022-12-29T03:19:30;10.80;94.90
8226;DHT22;4154;48.810;9.012;2022-12-29T03:22:10;10.80;95.00
8226;DHT22;4154;48.810;9.012;2022-12-29T03:25:03;10.80;95.10
8226;DHT22;4154;48.810;9.012;2022-12-29T03:27:39;10.80;94.90
8226;DHT22;4154;48.810;9.012;2022-12-29T03:30:09;10.80;95.00
8226;DHT22;4154;48.810;9.012;2022-12-29T03:32:47;10.90;94.90
8226;DHT22;4154;48.810;9.012;2022-12-29T03:35:19;10.90;94.80
8226;DHT22;4154;48.810;9.012;2022-12-29T03:38:12;10.90;95.00
8226;DHT22;4154;48.810;9.012;2022-12-29T03:40:45;10.90;94.90
8226;DHT22;4154;48.810;9.012;2022-12-29T03:43:13;11.00;94.80
8226;DHT22;4154;48.810;9.012;2022-12-29T03:45:40;11.00;94.70
8226;DHT22;4154;48.810;9.012;2022-12-29T03:48:06;10.90;94.80
8226;DHT22;4154;48.810;9.012;2022-12-29T03:50:32;11.00;94.80
8226;DHT22;4154;48.810;9.012;2022-12-29T04:00:16;11.00;94.80
8226;DHT22;4154;48.810;9.012;2022-12-29T04:05:08;10.90;94.90
8226;DHT22;4154;48.810;9.012;2022-12-29T04:07:33;10.90;95.20
8226;DHT22;4154;48.810;9.012;2022-12-29T04:09:59;11.00;95.20
8226;DHT22;4154;48.810;9.012;2022-12-29T04:12:25;11.00;95.20
8226;DHT22;4154;48.810;9.012;2022-12-29T04:14:50;11.00;95.30
8226;DHT22;4154;48.810;9.012;2022-12-29T04:17:16;11.00;95.40
8226;DHT22;4154;48.810;9.012;2022-12-29T04:19:41;11.00;95.50
8226;DHT22;4154;48.810;9.012;2022-12-29T04:22:07;11.00;95.50
8226;DHT22;4154;48.810;9.012;2022-12-29T04:24:33;11.00;95.50
8226;DHT22;4154;48.810;9.012;2022-12-29T04:26:58;11.10;95.40
8226;DHT22;4154;48.810;9.012;2022-12-29T04:29:24;11.10;95.30
8226;DHT22;4154;48.810;9.012;2022-12-29T04:34:22;11.10;95.20
8226;DHT22;4154;48.810;9.012;2022-12-29T04:36:47;11.10;95.40
8226;DHT22;4154;48.810;9.012;2022-12-29T04:39:13;11.10;95.40
8226;DHT22;4154;48.810;9.012;2022-12-29T04:44:05;11.10;95.20
8226;DHT22;4154;48.810;9.012;2022-12-29T04:46:30;11.10;95.40
8226;DHT22;4154;48.810;9.012;2022-12-29T04:48:56;11.10;95.40
8226;DHT22;4154;48.810;9.012;2022-12-29T04:51:22;11.20;95.50
8226;DHT22;4154;48.810;9.012;2022-12-29T04:53:48;11.20;95.50
8226;DHT22;4154;48.810;9.012;2022-12-29T04:56:13;11.10;95.60
8226;DHT22;4154;48.810;9.012;2022-12-29T04:58:39;11.10;95.70
8226;DHT22;4154;48.810;9.012;2022-12-29T05:01:05;11.10;95.70
8226;DHT22;4154;48.810;9.012;2022-12-29T05:03:30;11.10;95.80
8226;DHT22;4154;48.810;9.012;2022-12-29T05:05:56;11.20;98.00
8226;DHT22;4154;48.810;9.012;2022-12-29T05:08:23;11.20;95.90
8226;DHT22;4154;48.810;9.012;2022-12-29T05:10:52;11.10;96.00
8226;DHT22;4154;48.810;9.012;2022-12-29T05:13:18;11.20;96.00
8226;DHT22;4154;48.810;9.012;2022-12-29T05:15:53;11.10;96.10
8226;DHT22;4154;48.810;9.012;2022-12-29T05:18:19;11.10;96.10
8226;DHT22;4154;48.810;9.012;2022-12-29T05:20:46;11.10;96.10
8226;DHT22;4154;48.810;9.012;2022-12-29T05:23:12;11.10;96.20
8226;DHT22;4154;48.810;9.012;2022-12-29T05:25:52;11.10;96.20
8226;DHT22;4154;48.810;9.012;2022-12-29T05:28:17;11.20;96.20
8226;DHT22;4154;48.810;9.012;2022-12-29T05:30:43;13.40;97.30
8226;DHT22;4154;48.810;9.012;2022-12-29T05:33:08;11.20;96.20
8226;DHT22;4154;48.810;9.012;2022-12-29T05:35:36;11.20;96.30
8226;DHT22;4154;48.810;9.012;2022-12-29T05:38:02;11.30;96.20
8226;DHT22;4154;48.810;9.012;2022-12-29T05:40:28;11.30;96.10
8226;DHT22;4154;48.810;9.012;2022-12-29T05:42:53;11.30;96.10
8226;DHT22;4154;48.810;9.012;2022-12-29T05:45:19;11.30;96.10
8226;DHT22;4154;48.810;9.012;2022-12-29T05:47:44;11.30;96.30
8226;DHT22;4154;48.810;9.012;2022-12-29T05:50:10;11.30;96.20
8226;DHT22;4154;48.810;9.012;2022-12-29T05:52:36;11.30;96.30
8226;DHT22;4154;48.810;9.012;2022-12-29T05:55:01;11.40;96.30
8226;DHT22;4154;48.810;9.012;2022-12-29T05:57:27;11.40;96.30
8226;DHT22;4154;48.810;9.012;2022-12-29T05:59:52;11.50;96.10
8226;DHT22;4154;48.810;9.012;2022-12-29T06:02:18;11.50;96.00
8226;DHT22;4154;48.810;9.012;2022-12-29T06:04:44;11.50;96.00
8226;DHT22;4154;48.810;9.012;2022-12-29T06:07:09;11.50;96.00
8226;DHT22;4154;48.810;9.012;2022-12-29T06:09:35;11.50;96.10
8226;DHT22;4154;48.810;9.012;2022-12-29T06:12:00;11.50;96.00
8226;DHT22;4154;48.810;9.012;2022-12-29T06:14:39;11.30;95.90
8226;DHT22;4154;48.810;9.012;2022-12-29T06:17:05;11.50;95.90
8226;DHT22;4154;48.810;9.012;2022-12-29T06:21:57;11.50;95.70
8226;DHT22;4154;48.810;9.012;2022-12-29T06:24:22;11.50;95.90
8226;DHT22;4154;48.810;9.012;2022-12-29T06:26:48;11.20;98.00
8226;DHT22;4154;48.810;9.012;2022-12-29T06:29:14;11.40;95.90
8226;DHT22;4154;48.810;9.012;2022-12-29T06:31:43;11.40;96.10
8226;DHT22;4154;48.810;9.012;2022-12-29T06:34:28;11.40;96.00
8226;DHT22;4154;48.810;9.012;2022-12-29T06:36:53;11.30;96.00
8226;DHT22;4154;48.810;9.012;2022-12-29T06:39:19;11.40;96.00
8226;DHT22;4154;48.810;9.012;2022-12-29T06:41:45;11.40;95.90
8226;DHT22;4154;48.810;9.012;2022-12-29T06:44:10;11.30;96.00
8226;DHT22;4154;48.810;9.012;2022-12-29T06:46:36;11.30;95.80
8226;DHT22;4154;48.810;9.012;2022-12-29T06:49:02;11.40;95.90
8226;DHT22;4154;48.810;9.012;2022-12-29T06:51:28;11.30;95.70
8226;DHT22;4154;48.810;9.012;2022-12-29T06:53:53;11.30;95.80
8226;DHT22;4154;48.810;9.012;2022-12-29T06:56:19;11.30;95.80
8226;DHT22;4154;48.810;9.012;2022-12-29T06:58:44;11.30;95.70
8226;DHT22;4154;48.810;9.012;2022-12-29T07:03:36;11.40;95.40
8226;DHT22;4154;48.810;9.012;2022-12-29T07:06:02;11.40;98.00
8226;DHT22;4154;48.810;9.012;2022-12-29T07:08:28;11.40;95.50
8226;DHT22;4154;48.810;9.012;2022-12-29T07:10:53;11.40;95.50
8226;DHT22;4154;48.810;9.012;2022-12-29T07:13:19;11.40;95.50
8226;DHT22;4154;48.810;9.012;2022-12-29T07:15:45;11.40;95.40
8226;DHT22;4154;48.810;9.012;2022-12-29T07:18:14;11.40;95.40
8226;DHT22;4154;48.810;9.012;2022-12-29T07:20:40;11.40;95.50
8226;DHT22;4154;48.810;9.012;2022-12-29T07:23:06;11.40;95.40
8226;DHT22;4154;48.810;9.012;2022-12-29T07:25:31;11.40;95.60
8226;DHT22;4154;48.810;9.012;2022-12-29T07:27:57;11.30;95.40
8226;DHT22;4154;48.810;9.012;2022-12-29T07:30:23;11.40;95.40
8226;DHT22;4154;48.810;9.012;2022-12-29T07:32:48;11.30;95.40
8226;DHT22;4154;48.810;9.012;2022-12-29T07:35:14;11.30;95.50
8226;DHT22;4154;48.810;9.012;2022-12-29T07:40:06;11.30;95.10
8226;DHT22;4154;48.810;9.012;2022-12-29T07:42:34;11.30;95.50
8226;DHT22;4154;48.810;9.012;2022-12-29T07:44:59;11.30;95.40
8226;DHT22;4154;48.810;9.012;2022-12-29T07:47:26;11.30;95.30
8226;DHT22;4154;48.810;9.012;2022-12-29T07:49:51;11.30;95.20
8226;DHT22;4154;48.810;9.012;2022-12-29T07:52:17;11.30;95.10
8226;DHT22;4154;48.810;9.012;2022-12-29T07:54:43;11.30;95.10
8226;DHT22;4154;48.810;9.012;2022-12-29T07:59:34;11.20;94.90
8226;DHT22;4154;48.810;9.012;2022-12-29T08:04:26;11.20;95.00
8226;DHT22;4154;48.810;9.012;2022-12-29T08:06:52;11.20;95.10
8226;DHT22;4154;48.810;9.012;2022-12-29T08:09:17;11.20;95.10
8226;DHT22;4154;48.810;9.012;2022-12-29T08:11:43;11.20;95.20
8226;DHT22;4154;48.810;9.012;2022-12-29T08:14:09;11.30;95.00
8226;DHT22;4154;48.810;9.012;2022-12-29T08:16:35;11.30;95.00
8226;DHT22;4154;48.810;9.012;2022-12-29T08:19:01;11.30;95.10
8226;DHT22;4154;48.810;9.012;2022-12-29T08:21:28;11.20;95.20
8226;DHT22;4154;48.810;9.012;2022-12-29T08:23:54;11.20;95.30
8226;DHT22;4154;48.810;9.012;2022-12-29T08:26:20;11.20;95.30
8226;DHT22;4154;48.810;9.012;2022-12-29T08:28:47;11.20;95.20
8226;DHT22;4154;48.810;9.012;2022-12-29T08:31:12;11.20;95.40
8226;DHT22;4154;48.810;9.012;2022-12-29T08:33:38;11.30;95.20
8226;DHT22;4154;48.810;9.012;2022-12-29T08:36:06;11.30;97.30
8226;DHT22;4154;48.810;9.012;2022-12-29T08:38:32;11.40;94.90
8226;DHT22;4154;48.810;9.012;2022-12-29T08:40:58;11.40;94.80
8226;DHT22;4154;48.810;9.012;2022-12-29T08:43:27;11.40;94.90
8226;DHT22;4154;48.810;9.012;2022-12-29T08:48:19;11.30;94.80
8226;DHT22;4154;48.810;9.012;2022-12-29T08:50:47;11.30;95.00
8226;DHT22;4154;48.810;9.012;2022-12-29T08:53:14;11.30;94.90
8226;DHT22;4154;48.810;9.012;2022-12-29T08:55:40;11.30;95.00
8226;DHT22;4154;48.810;9.012;2022-12-29T09:00:32;11.30;94.80
8226;DHT22;4154;48.810;9.012;2022-12-29T09:02:57;12.00;95.50
8226;DHT22;4154;48.810;9.012;2022-12-29T09:10:15;11.50;94.70
8226;DHT22;4154;48.810;9.012;2022-12-29T09:12:41;11.50;95.20
8226;DHT22;4154;48.810;9.012;2022-12-29T09:15:07;12.90;95.90
8226;DHT22;4154;48.810;9.012;2022-12-29T09:20:13;11.70;94.70
8226;DHT22;4154;48.810;9.012;2022-12-29T09:22:41;11.90;94.90
8226;DHT22;4154;48.810;9.012;2022-12-29T09:25:08;13.60;95.50
8226;DHT22;4154;48.810;9.012;2022-12-29T09:27:35;12.20;94.70
8226;DHT22;4154;48.810;9.012;2022-12-29T09:30:02;14.40;95.30
8226;DHT22;4154;48.810;9.012;2022-12-29T09:32:29;12.40;94.40
8226;DHT22;4154;48.810;9.012;2022-12-29T09:34:55;12.50;94.50
8226;DHT22;4154;48.810;9.012;2022-12-29T09:39:47;12.60;94.30
8226;DHT22;4154;48.810;9.012;2022-12-29T09:42:38;12.70;94.10
8226;DHT22;4154;48.810;9.012;2022-12-29T09:45:20;12.70;94.30
8226;DHT22;4154;48.810;9.012;2022-12-29T09:48:14;12.80;94.30
8226;DHT22;4154;48.810;9.012;2022-12-29T09:50:50;14.20;95.00
8226;DHT22;4154;48.810;9.012;2022-12-29T09:53:30;12.90;94.20
8226;DHT22;4154;48.810;9.012;2022-12-29T09:56:00;13.10;96.00
8226;DHT22;4154;48.810;9.012;2022-12-29T09:58:41;12.90;93.90
8226;DHT22;4154;48.810;9.012;2022-12-29T10:01:26;13.10;94.20
8226;DHT22;4154;48.810;9.012;2022-12-29T10:04:02;13.10;94.30
8226;DHT22;4154;48.810;9.012;2022-12-29T10:07:09;13.00;94.40
8226;DHT22;4154;48.810;9.012;2022-12-29T10:18:40;12.90;94.70
8226;DHT22;4154;48.810;9.012;2022-12-29T10:21:39;12.90;94.70
8226;DHT22;4154;48.810;9.012;2022-12-29T10:24:11;12.90;94.80
8226;DHT22;4154;48.810;9.012;2022-12-29T10:26:40;12.90;94.80
8226;DHT22;4154;48.810;9.012;2022-12-29T10:29:23;12.90;94.80
8226;DHT22;4154;48.810;9.012;2022-12-29T10:32:02;12.90;94.80
8226;DHT22;4154;48.810;9.012;2022-12-29T10:40:09;13.00;95.10
8226;DHT22;4154;48.810;9.012;2022-12-29T10:42:58;12.80;97.30
8226;DHT22;4154;48.810;9.012;2022-12-29T10:45:30;13.00;95.50
8226;DHT22;4154;48.810;9.012;2022-12-29T10:48:08;13.10;95.30
8226;DHT22;4154;48.810;9.012;2022-12-29T10:50:41;13.10;95.30
8226;DHT22;4154;48.810;9.012;2022-12-29T10:53:15;13.10;95.50
8226;DHT22;4154;48.810;9.012;2022-12-29T10:55:46;13.30;95.70
8226;DHT22;4154;48.810;9.012;2022-12-29T10:58:13;15.00;96.10
8226;DHT22;4154;48.810;9.012;2022-12-29T11:00:52;13.10;95.20
8226;DHT22;4154;48.810;9.012;2022-12-29T11:06:40;13.10;95.20
8226;DHT22;4154;48.810;9.012;2022-12-29T11:09:25;13.10;94.70
8226;DHT22;4154;48.810;9.012;2022-12-29T11:11:53;13.10;94.80
8226;DHT22;4154;48.810;9.012;2022-12-29T11:14:26;13.20;94.60
8226;DHT22;4154;48.810;9.012;2022-12-29T11:17:03;13.20;94.80
8226;DHT22;4154;48.810;9.012;2022-12-29T11:19:32;13.20;94.40
8226;DHT22;4154;48.810;9.012;2022-12-29T11:22:23;13.20;94.40
8226;DHT22;4154;48.810;9.012;2022-12-29T11:24:52;13.20;94.70
8226;DHT22;4154;48.810;9.012;2022-12-29T11:27:23;13.20;94.30
8226;DHT22;4154;48.810;9.012;2022-12-29T11:29:52;13.20;94.50
8226;DHT22;4154;48.810;9.012;2022-12-29T11:32:21;13.30;94.00
8226;DHT22;4154;48.810;9.012;2022-12-29T11:34:48;13.20;93.80
8226;DHT22;4154;48.810;9.012;2022-12-29T11:37:17;13.30;93.70
8226;DHT22;4154;48.810;9.012;2022-12-29T11:42:19;13.10;93.80
8226;DHT22;4154;48.810;9.012;2022-12-29T11:44:49;13.10;93.40
8226;DHT22;4154;48.810;9.012;2022-12-29T11:47:29;12.90;93.50
8226;DHT22;4154;48.810;9.012;2022-12-29T11:50:03;12.80;93.80
8226;DHT22;4154;48.810;9.012;2022-12-29T11:52:35;12.70;93.70
8226;DHT22;4154;48.810;9.012;2022-12-29T11:55:06;12.70;93.80
8226;DHT22;4154;48.810;9.012;2022-12-29T11:57:43;12.70;94.20
8226;DHT22;4154;48.810;9.012;2022-12-29T12:00:23;12.60;94.40
8226;DHT22;4154;48.810;9.012;2022-12-29T12:03:01;12.60;94.80
8226;DHT22;4154;48.810;9.012;2022-12-29T12:08:44;12.50;95.50
8226;DHT22;4154;48.810;9.012;2022-12-29T12:11:28;12.60;95.40
8226;DHT22;4154;48.810;9.012;2022-12-29T12:14:46;12.60;95.80
8226;DHT22;4154;48.810;9.012;2022-12-29T12:17:45;12.60;96.30
8226;DHT22;4154;48.810;9.012;2022-12-29T12:20:48;12.60;96.30
8226;DHT22;4154;48.810;9.012;2022-12-29T12:26:21;12.30;98.70
8226;DHT22;4154;48.810;9.012;2022-12-29T12:29:22;12.60;96.70
8226;DHT22;4154;48.810;9.012;2022-12-29T12:31:54;12.40;96.70
8226;DHT22;4154;48.810;9.012;2022-12-29T12:34:46;12.70;97.00
8226;DHT22;4154;48.810;9.012;2022-12-29T12:52:19;13.00;96.90
8226;DHT22;4154;48.810;9.012;2022-12-29T13:10:25;13.20;97.00
8226;DHT22;4154;48.810;9.012;2022-12-29T13:16:23;13.10;97.20
8226;DHT22;4154;48.810;9.012;2022-12-29T13:19:14;12.50;96.90
8226;DHT22;4154;48.810;9.012;2022-12-29T13:22:32;13.10;97.30
8226;DHT22;4154;48.810;9.012;2022-12-29T13:28:21;12.90;99.30
8226;DHT22;4154;48.810;9.012;2022-12-29T13:31:15;13.60;97.50
8226;DHT22;4154;48.810;9.012;2022-12-29T13:33:58;12.90;97.20
8226;DHT22;4154;48.810;9.012;2022-12-29T13:36:39;12.90;97.30
8226;DHT22;4154;48.810;9.012;2022-12-29T13:41:46;13.00;97.40
8226;DHT22;4154;48.810;9.012;2022-12-29T13:44:27;12.80;97.20
8226;DHT22;4154;48.810;9.012;2022-12-29T13:47:00;12.80;97.20
8226;DHT22;4154;48.810;9.012;2022-12-29T13:49:33;12.80;97.10
8226;DHT22;4154;48.810;9.012;2022-12-29T13:52:17;12.80;97.10
8226;DHT22;4154;48.810;9.012;2022-12-29T13:55:22;12.80;97.10
8226;DHT22;4154;48.810;9.012;2022-12-29T14:01:28;12.80;97.10
8226;DHT22;4154;48.810;9.012;2022-12-29T14:04:02;12.80;97.10
8226;DHT22;4154;48.810;9.012;2022-12-29T14:06:35;12.80;97.20
8226;DHT22;4154;48.810;9.012;2022-12-29T14:09:34;12.70;97.10
8226;DHT22;4154;48.810;9.012;2022-12-29T14:12:25;15.10;98.20
8226;DHT22;4154;48.810;9.012;2022-12-29T14:17:37;12.70;97.50
8226;DHT22;4154;48.810;9.012;2022-12-29T14:20:17;12.80;97.70
8226;DHT22;4154;48.810;9.012;2022-12-29T14:23:26;12.70;97.50
8226;DHT22;4154;48.810;9.012;2022-12-29T14:28:34;12.70;97.70
8226;DHT22;4154;48.810;9.012;2022-12-29T14:36:52;12.60;99.90
8226;DHT22;4154;48.810;9.012;2022-12-29T14:44:49;12.10;97.80
8226;DHT22;4154;48.810;9.012;2022-12-29T14:50:02;12.50;97.80
8226;DHT22;4154;48.810;9.012;2022-12-29T14:52:31;12.30;97.90
8226;DHT22;4154;48.810;9.012;2022-12-29T14:54:59;12.40;98.00
8226;DHT22;4154;48.810;9.012;2022-12-29T15:00:48;12.40;98.10
8226;DHT22;4154;48.810;9.012;2022-12-29T15:03:18;12.30;98.10
8226;DHT22;4154;48.810;9.012;2022-12-29T15:05:55;12.60;99.90
8226;DHT22;4154;48.810;9.012;2022-12-29T15:08:26;12.20;99.90
8226;DHT22;4154;48.810;9.012;2022-12-29T15:11:23;12.20;97.90
8226;DHT22;4154;48.810;9.012;2022-12-29T15:14:35;12.20;98.20
8226;DHT22;4154;48.810;9.012;2022-12-29T15:17:10;12.10;98.10
8226;DHT22;4154;48.810;9.012;2022-12-29T15:19:48;12.10;98.30
8226;DHT22;4154;48.810;9.012;2022-12-29T15:24:42;12.00;98.20
8226;DHT22;4154;48.810;9.012;2022-12-29T15:27:13;11.70;98.30
8226;DHT22;4154;48.810;9.012;2022-12-29T15:29:41;11.90;98.60
8226;DHT22;4154;48.810;9.012;2022-12-29T15:34:43;11.80;99.50
8226;DHT22;4154;48.810;9.012;2022-12-29T15:37:15;11.80;99.90
8226;DHT22;4154;48.810;9.012;2022-12-29T15:39:43;11.70;99.90
8226;DHT22;4154;48.810;9.012;2022-12-29T15:45:12;10.90;99.90
8226;DHT22;4154;48.810;9.012;2022-12-29T15:47:41;10.80;99.90
8226;DHT22;4154;48.810;9.012;2022-12-29T15:52:46;10.40;99.90
8226;DHT22;4154;48.810;9.012;2022-12-29T15:55:20;10.40;99.90
8226;DHT22;4154;48.810;9.012;2022-12-29T15:57:56;10.40;99.90
8226;DHT22;4154;48.810;9.012;2022-12-29T16:00:29;10.20;99.90
8226;DHT22;4154;48.810;9.012;2022-12-29T16:03:01;10.30;99.90
8226;DHT22;4154;48.810;9.012;2022-12-29T16:05:38;11.70;99.90
8226;DHT22;4154;48.810;9.012;2022-12-29T16:08:27;10.00;99.90
8226;DHT22;4154;48.810;9.012;2022-12-29T16:11:00;10.00;99.90
8226;DHT22;4154;48.810;9.012;2022-12-29T16:16:19;9.90;99.90
8226;DHT22;4154;48.810;9.012;2022-12-29T16:18:51;9.90;99.90
8226;DHT22;4154;48.810;9.012;2022-12-29T16:21:42;9.90;99.90
8226;DHT22;4154;48.810;9.012;2022-12-29T16:24:13;9.90;99.90
8226;DHT22;4154;48.810;9.012;2022-12-29T16:26:47;9.90;99.90
8226;DHT22;4154;48.810;9.012;2022-12-29T16:29:19;9.90;99.90
8226;DHT22;4154;48.810;9.012;2022-12-29T16:31:51;9.90;99.90
8226;DHT22;4154;48.810;9.012;2022-12-29T16:34:24;9.90;99.90
8226;DHT22;4154;48.810;9.012;2022-12-29T16:37:04;9.90;99.90
8226;DHT22;4154;48.810;9.012;2022-12-29T16:39:49;9.90;99.90
8226;DHT22;4154;48.810;9.012;2022-12-29T16:48:21;9.90;99.90
8226;DHT22;4154;48.810;9.012;2022-12-29T16:50:51;9.90;99.90
8226;DHT22;4154;48.810;9.012;2022-12-29T16:53:37;9.90;99.90
8226;DHT22;4154;48.810;9.012;2022-12-29T16:56:13;9.90;99.90
8226;DHT22;4154;48.810;9.012;2022-12-29T16:58:41;9.90;99.90
8226;DHT22;4154;48.810;9.012;2022-12-29T17:03:48;9.80;99.90
8226;DHT22;4154;48.810;9.012;2022-12-29T17:06:18;9.90;99.90
8226;DHT22;4154;48.810;9.012;2022-12-29T17:08:46;10.80;99.90
8226;DHT22;4154;48.810;9.012;2022-12-29T17:11:31;9.90;99.90
8226;DHT22;4154;48.810;9.012;2022-12-29T17:14:21;9.90;99.90
8226;DHT22;4154;48.810;9.012;2022-12-29T17:16:53;9.90;99.90
8226;DHT22;4154;48.810;9.012;2022-12-29T17:19:26;9.90;99.90
8226;DHT22;4154;48.810;9.012;2022-12-29T17:21:55;9.80;99.90
8226;DHT22;4154;48.810;9.012;2022-12-29T17:24:21;9.80;99.90
8226;DHT22;4154;48.810;9.012;2022-12-29T17:26:52;9.80;99.90
8226;DHT22;4154;48.810;9.012;2022-12-29T17:29:31;9.80;99.90
8226;DHT22;4154;48.810;9.012;2022-12-29T17:32:04;9.90;99.90
8226;DHT22;4154;48.810;9.012;2022-12-29T17:34:32;9.90;99.90
8226;DHT22;4154;48.810;9.012;2022-12-29T17:39:24;9.90;99.90
8226;DHT22;4154;48.810;9.012;2022-12-29T17:41:50;9.90;99.90
8226;DHT22;4154;48.810;9.012;2022-12-29T17:44:20;9.90;99.90
8226;DHT22;4154;48.810;9.012;2022-12-29T17:46:47;9.90;99.90
8226;DHT22;4154;48.810;9.012;2022-12-29T17:49:15;9.90;99.90
8226;DHT22;4154;48.810;9.012;2022-12-29T17:51:44;9.80;99.90
8226;DHT22;4154;48.810;9.012;2022-12-29T17:54:19;9.80;99.90
8226;DHT22;4154;48.810;9.012;2022-12-29T17:56:47;9.80;99.90
8226;DHT22;4154;48.810;9.012;2022-12-29T18:01:41;9.90;99.90
8226;DHT22;4154;48.810;9.012;2022-12-29T18:04:20;9.90;99.90
8226;DHT22;4154;48.810;9.012;2022-12-29T18:06:46;9.90;99.90
8226;DHT22;4154;48.810;9.012;2022-12-29T18:11:40;9.60;99.90
8226;DHT22;4154;48.810;9.012;2022-12-29T18:14:14;9.70;99.90
8226;DHT22;4154;48.810;9.012;2022-12-29T18:21:35;9.50;99.90
8226;DHT22;4154;48.810;9.012;2022-12-29T18:31:31;9.30;99.90
8226;DHT22;4154;48.810;9.012;2022-12-29T18:34:00;9.20;99.90
8226;DHT22;4154;48.810;9.012;2022-12-29T18:41:23;9.20;99.90
8226;DHT22;4154;48.810;9.012;2022-12-29T18:51:15;9.20;99.90
8226;DHT22;4154;48.810;9.012;2022-12-29T18:53:43;9.20;99.90
8226;DHT22;4154;48.810;9.012;2022-12-29T19:13:18;9.00;99.90
8226;DHT22;4154;48.810;9.012;2022-12-29T19:18:17;9.00;99.90
8226;DHT22;4154;48.810;9.012;2022-12-29T19:20:46;9.00;99.90
8226;DHT22;4154;48.810;9.012;2022-12-29T19:23:15;8.90;99.90
8226;DHT22;4154;48.810;9.012;2022-12-29T19:25:43;8.80;99.90
8226;DHT22;4154;48.810;9.012;2022-12-29T19:28:24;8.80;99.90
8226;DHT22;4154;48.810;9.012;2022-12-29T19:30:54;8.70;99.90
8226;DHT22;4154;48.810;9.012;2022-12-29T19:35:51;8.80;99.90
8226;DHT22;4154;48.810;9.012;2022-12-29T19:38:18;8.80;99.90
8226;DHT22;4154;48.810;9.012;2022-12-29T19:40:49;8.80;99.90
8226;DHT22;4154;48.810;9.012;2022-12-29T19:43:40;8.90;99.90
8226;DHT22;4154;48.810;9.012;2022-12-29T19:46:18;8.90;99.90
8226;DHT22;4154;48.810;9.012;2022-12-29T19:52:57;8.90;99.90
8226;DHT22;4154;48.810;9.012;2022-12-29T20:07:37;8.90;99.90
8226;DHT22;4154;48.810;9.012;2022-12-29T20:10:04;8.90;99.90
8226;DHT22;4154;48.810;9.012;2022-12-29T20:19:49;8.90;99.90
8226;DHT22;4154;48.810;9.012;2022-12-29T20:22:15;8.90;99.90
8226;DHT22;4154;48.810;9.012;2022-12-29T20:24:40;8.90;99.90
8226;DHT22;4154;48.810;9.012;2022-12-29T20:27:08;8.90;99.90
8226;DHT22;4154;48.810;9.012;2022-12-29T20:29:37;8.90;99.90
8226;DHT22;4154;48.810;9.012;2022-12-29T20:32:14;8.80;99.90
8226;DHT22;4154;48.810;9.012;2022-12-29T20:34:42;8.90;99.90
8226;DHT22;4154;48.810;9.012;2022-12-29T20:37:09;8.80;99.90
8226;DHT22;4154;48.810;9.012;2022-12-29T20:39:35;8.80;99.90
8226;DHT22;4154;48.810;9.012;2022-12-29T20:42:02;8.90;99.90
8226;DHT22;4154;48.810;9.012;2022-12-29T20:44:29;8.90;99.90
8226;DHT22;4154;48.810;9.012;2022-12-29T20:46:57;8.80;99.90
8226;DHT22;4154;48.810;9.012;2022-12-29T20:49:23;8.80;99.90
8226;DHT22;4154;48.810;9.012;2022-12-29T20:51:50;8.80;99.90
8226;DHT22;4154;48.810;9.012;2022-12-29T20:54:17;8.70;99.90
8226;DHT22;4154;48.810;9.012;2022-12-29T20:56:43;8.70;99.90
8226;DHT22;4154;48.810;9.012;2022-12-29T21:01:37;8.60;99.90
8226;DHT22;4154;48.810;9.012;2022-12-29T21:06:30;8.60;99.90
8226;DHT22;4154;48.810;9.012;2022-12-29T21:08:57;8.70;99.90
8226;DHT22;4154;48.810;9.012;2022-12-29T21:14:05;8.60;99.90
8226;DHT22;4154;48.810;9.012;2022-12-29T21:18:56;8.60;99.90
8226;DHT22;4154;48.810;9.012;2022-12-29T21:21:23;8.60;99.90